createdAt,value
2019-01-31T00:01:47.358Z,0.31
2019-01-31T00:04:25.404Z,0.28
2019-01-31T00:07:06.901Z,0.32
2019-01-31T00:09:44.880Z,0.31
2019-01-31T00:12:20.079Z,0.31
2019-01-31T00:14:54.635Z,0.38
2019-01-31T00:17:44.438Z,0.43
2019-01-31T00:20:34.047Z,0.50
2019-01-31T00:23:05.628Z,0.50
2019-01-31T00:25:52.191Z,0.44
2019-01-31T00:28:29.656Z,0.43
2019-01-31T00:31:04.131Z,0.46
2019-01-31T00:33:35.660Z,0.49
2019-01-31T00:36:13.310Z,0.49
2019-01-31T00:38:57.285Z,0.45
2019-01-31T00:41:46.852Z,0.43
2019-01-31T00:44:24.170Z,0.46
2019-01-31T00:47:04.603Z,0.51
2019-01-31T00:49:45.205Z,0.54
2019-01-31T00:52:34.654Z,0.59
2019-01-31T00:55:23.964Z,0.55
2019-01-31T00:57:58.227Z,0.53
2019-01-31T01:00:38.442Z,0.57
2019-01-31T01:03:26.799Z,0.54
2019-01-31T01:06:20.918Z,0.55
2019-01-31T01:09:07.596Z,0.57
2019-01-31T01:11:34.419Z,0.57
2019-01-31T01:14:11.801Z,0.23
2019-01-31T01:16:55.216Z,0.65
2019-01-31T01:19:38.877Z,0.62
2019-01-31T01:22:15.929Z,0.66
2019-01-31T01:24:53.249Z,0.69
2019-01-31T01:27:36.523Z,0.64
2019-01-31T01:30:20.205Z,0.71
2019-01-31T01:32:54.339Z,0.71
2019-01-31T01:35:31.622Z,0.71
2019-01-31T01:38:06.228Z,0.71
2019-01-31T01:40:40.983Z,0.73
2019-01-31T01:43:12.511Z,0.76
2019-01-31T01:45:59.240Z,0.74
2019-01-31T01:48:33.651Z,0.76
2019-01-31T01:51:17.210Z,0.78
2019-01-31T01:54:19.073Z,0.77
2019-01-31T01:56:50.671Z,0.75
2019-01-31T01:59:25.060Z,0.75
2019-01-31T02:02:14.455Z,0.80
2019-01-31T02:04:57.890Z,0.81
2019-01-31T02:07:38.538Z,0.79
2019-01-31T02:10:12.910Z,0.80
2019-01-31T02:13:00.676Z,0.79
2019-01-31T02:15:48.310Z,0.43
2019-01-31T02:18:28.803Z,0.76
2019-01-31T02:21:18.382Z,0.84
2019-01-31T02:23:58.761Z,0.80
2019-01-31T02:26:36.271Z,0.83
2019-01-31T02:29:19.682Z,0.78
2019-01-31T02:32:00.112Z,0.78
2019-01-31T02:34:40.269Z,0.80
2019-01-31T02:37:14.476Z,0.79
2019-01-31T02:39:49.079Z,0.75
2019-01-31T02:42:22.089Z,0.78
2019-01-31T02:44:56.213Z,0.80
2019-01-31T02:47:45.842Z,0.82
2019-01-31T02:50:35.320Z,0.82
2019-01-31T02:53:25.403Z,0.78
2019-01-31T02:56:22.448Z,0.71
2019-01-31T02:59:03.075Z,0.81
2019-01-31T03:01:43.380Z,0.77
2019-01-31T03:04:15.042Z,0.77
2019-01-31T03:06:46.752Z,0.81
2019-01-31T03:09:21.240Z,0.76
2019-01-31T03:11:58.875Z,0.76
2019-01-31T03:14:30.478Z,0.69
2019-01-31T03:17:23.137Z,0.72
2019-01-31T03:20:12.510Z,0.74
2019-01-31T03:22:47.010Z,0.75
2019-01-31T03:25:27.167Z,0.70
2019-01-31T03:28:31.707Z,0.70
2019-01-31T03:31:21.280Z,0.67
2019-01-31T03:34:04.683Z,0.61
2019-01-31T03:36:36.271Z,0.52
2019-01-31T03:39:19.944Z,0.44
2019-01-31T03:42:09.817Z,0.38
2019-01-31T03:44:44.409Z,0.24
2019-01-31T03:47:18.742Z,0.27
2019-01-31T03:49:53.299Z,0.21
2019-01-31T03:52:53.205Z,0.22
2019-01-31T03:55:27.736Z,0.21
2019-01-31T03:58:08.219Z,0.26
2019-01-31T04:00:48.670Z,0.29
2019-01-31T04:03:26.088Z,0.33
2019-01-31T04:05:57.674Z,0.39
2019-01-31T04:08:26.131Z,0.43
2019-01-31T04:10:54.657Z,0.45
2019-01-31T04:13:22.933Z,0.51
2019-01-31T04:15:51.334Z,0.52
2019-01-31T04:18:19.777Z,0.54
2019-01-31T04:20:51.074Z,0.57
2019-01-31T04:23:18.447Z,0.60
2019-01-31T04:25:46.803Z,0.59
2019-01-31T04:28:15.245Z,0.61
2019-01-31T04:30:43.604Z,0.64
2019-01-31T04:33:14.150Z,0.68
2019-01-31T04:35:42.556Z,0.71
2019-01-31T04:38:10.843Z,0.73
2019-01-31T04:40:39.275Z,0.70
2019-01-31T04:43:07.689Z,0.73
2019-01-31T04:45:35.987Z,0.74
2019-01-31T04:48:04.612Z,0.73
2019-01-31T04:50:33.152Z,0.74
2019-01-31T04:53:01.605Z,0.69
2019-01-31T04:55:30.068Z,0.74
2019-01-31T04:57:58.430Z,0.75
2019-01-31T05:00:26.787Z,0.73
2019-01-31T05:02:55.202Z,0.73
2019-01-31T05:05:23.586Z,0.74
2019-01-31T05:07:53.290Z,0.71
2019-01-31T05:10:21.637Z,0.72
2019-01-31T05:12:50.051Z,0.70
2019-01-31T05:15:18.360Z,0.71
2019-01-31T05:17:46.729Z,0.64
2019-01-31T05:20:17.249Z,0.65
2019-01-31T05:22:45.682Z,0.64
2019-01-31T05:25:14.809Z,0.67
2019-01-31T05:27:43.285Z,0.60
2019-01-31T05:30:14.156Z,0.64
2019-01-31T05:32:42.561Z,0.59
2019-01-31T05:35:11.871Z,0.59
2019-01-31T05:37:40.291Z,0.62
2019-01-31T05:40:12.054Z,0.58
2019-01-31T05:42:40.477Z,0.51
2019-01-31T05:45:20.333Z,0.55
2019-01-31T05:47:57.764Z,0.52
2019-01-31T05:50:28.293Z,0.54
2019-01-31T05:52:56.724Z,0.50
2019-01-31T05:55:25.097Z,0.43
2019-01-31T05:57:53.386Z,0.41
2019-01-31T06:00:25.106Z,0.44
2019-01-31T06:02:53.430Z,0.40
2019-01-31T06:05:21.705Z,0.40
2019-01-31T06:07:50.060Z,0.40
2019-01-31T06:10:18.470Z,0.36
2019-01-31T06:12:46.863Z,0.34
2019-01-31T06:15:18.671Z,0.33
2019-01-31T06:17:47.122Z,0.40
2019-01-31T06:20:23.517Z,0.38
2019-01-31T06:22:51.832Z,0.34
2019-01-31T06:25:20.175Z,0.34
2019-01-31T06:27:48.588Z,0.32
2019-01-31T06:30:18.565Z,0.29
2019-01-31T06:32:47.002Z,0.30
2019-01-31T06:35:15.580Z,0.26
2019-01-31T06:37:43.869Z,0.29
2019-01-31T06:40:15.475Z,0.25
2019-01-31T06:42:44.025Z,0.25
2019-01-31T06:45:17.496Z,0.19
2019-01-31T06:47:45.987Z,0.20
2019-01-31T06:50:14.311Z,0.10
2019-01-31T06:52:42.651Z,0.05
2019-01-31T06:55:12.304Z,-0.05
2019-01-31T06:57:40.744Z,-0.02
2019-01-31T07:00:20.814Z,-0.06
2019-01-31T07:02:49.106Z,-0.07
2019-01-31T07:05:17.414Z,-0.08
2019-01-31T07:07:45.813Z,-0.11
2019-01-31T07:10:20.225Z,-0.03
2019-01-31T07:12:48.551Z,-0.03
2019-01-31T07:15:16.978Z,-0.06
2019-01-31T07:17:45.338Z,-0.03
2019-01-31T07:20:17.540Z,-0.08
2019-01-31T07:22:46.803Z,-0.06
2019-01-31T07:25:22.145Z,-0.13
2019-01-31T07:27:53.019Z,-0.21
2019-01-31T07:30:23.012Z,-0.23
2019-01-31T07:32:51.286Z,-0.25
2019-01-31T07:35:19.651Z,-0.24
2019-01-31T07:37:47.929Z,-0.25
2019-01-31T07:40:22.104Z,-0.23
2019-01-31T07:42:50.456Z,-0.29
2019-01-31T07:45:24.352Z,-0.27
2019-01-31T07:47:52.780Z,-0.26
2019-01-31T07:50:21.119Z,-0.32
2019-01-31T07:52:49.474Z,-0.34
2019-01-31T07:55:17.987Z,-0.37
2019-01-31T07:57:46.266Z,-0.47
2019-01-31T08:00:20.787Z,-0.43
2019-01-31T08:02:49.170Z,-0.54
2019-01-31T08:05:20.342Z,-0.53
2019-01-31T08:07:49.459Z,-0.60
2019-01-31T08:10:32.764Z,-0.52
2019-01-31T08:13:01.041Z,-0.48
2019-01-31T08:15:29.331Z,-0.44
2019-01-31T08:17:57.720Z,-0.48
2019-01-31T08:20:26.097Z,-0.56
2019-01-31T08:22:54.399Z,-0.51
2019-01-31T08:25:25.337Z,-0.48
2019-01-31T08:27:54.820Z,-0.56
2019-01-31T08:30:31.982Z,-0.57
2019-01-31T08:33:00.271Z,-0.58
2019-01-31T08:35:28.649Z,-0.52
2019-01-31T08:37:57.045Z,-0.64
2019-01-31T08:40:25.348Z,-0.61
2019-01-31T08:42:53.638Z,-0.58
2019-01-31T08:45:22.046Z,-0.53
2019-01-31T08:47:50.407Z,-0.49
2019-01-31T08:50:21.467Z,-0.61
2019-01-31T08:52:52.769Z,-0.59
2019-01-31T08:55:22.195Z,-0.63
2019-01-31T08:57:50.557Z,-0.62
2019-01-31T09:00:21.484Z,-0.65
2019-01-31T09:02:50.160Z,-0.56
2019-01-31T09:05:25.869Z,-0.51
2019-01-31T09:07:54.733Z,-0.48
2019-01-31T09:10:28.987Z,-0.44
2019-01-31T09:12:59.399Z,-0.42
2019-01-31T09:15:28.939Z,-0.29
2019-01-31T09:17:57.278Z,-0.29
2019-01-31T09:20:29.127Z,-0.32
2019-01-31T09:23:12.418Z,-0.36
2019-01-31T09:26:10.498Z,-0.36
2019-01-31T09:28:45.080Z,-0.44
2019-01-31T09:31:34.102Z,-0.36
2019-01-31T09:34:08.604Z,-0.34
2019-01-31T09:37:07.975Z,-0.30
2019-01-31T09:39:54.537Z,-0.33
2019-01-31T09:42:43.996Z,-0.36
2019-01-31T09:45:15.551Z,-0.28
2019-01-31T09:47:55.785Z,-0.33
2019-01-31T09:50:50.886Z,-0.31
2019-01-31T09:53:29.103Z,-0.36
2019-01-31T09:56:12.548Z,-0.18
2019-01-31T09:59:03.652Z,-0.09
2019-01-31T10:02:09.982Z,-0.09
2019-01-31T10:04:44.109Z,0.00
2019-01-31T10:07:21.667Z,0.10
2019-01-31T10:10:14.316Z,0.10
2019-01-31T10:13:04.938Z,0.12
2019-01-31T10:15:51.510Z,0.03
2019-01-31T10:18:41.644Z,-0.07
2019-01-31T10:21:16.226Z,-0.12
2019-01-31T10:23:59.863Z,-0.29
2019-01-31T10:26:56.203Z,-0.27
2019-01-31T10:29:46.146Z,-0.28
2019-01-31T10:32:34.707Z,-0.07
2019-01-31T10:35:18.163Z,0.11
2019-01-31T10:37:52.441Z,0.16
2019-01-31T10:40:26.909Z,0.16
2019-01-31T10:43:12.794Z,0.26
2019-01-31T10:45:47.286Z,0.41
2019-01-31T10:48:21.767Z,0.50
2019-01-31T10:51:08.455Z,0.43
2019-01-31T10:53:40.093Z,0.45
2019-01-31T10:56:38.427Z,0.39
2019-01-31T10:59:10.039Z,0.60
2019-01-31T11:01:50.190Z,0.63
2019-01-31T11:04:36.636Z,0.88
2019-01-31T11:07:24.973Z,1.05
2019-01-31T11:09:59.082Z,0.78
2019-01-31T11:13:00.860Z,0.88
2019-01-31T11:15:44.496Z,0.92
2019-01-31T11:18:22.096Z,1.06
2019-01-31T11:20:56.545Z,1.07
2019-01-31T11:23:28.928Z,1.05
2019-01-31T11:26:12.631Z,1.19
2019-01-31T11:29:13.995Z,1.22
2019-01-31T11:31:58.612Z,0.94
2019-01-31T11:34:42.242Z,1.11
2019-01-31T11:37:46.688Z,1.27
2019-01-31T11:40:55.191Z,1.64
2019-01-31T11:43:35.669Z,1.54
2019-01-31T11:46:22.565Z,1.48
2019-01-31T11:48:54.105Z,1.35
2019-01-31T11:51:49.683Z,1.35
2019-01-31T11:54:24.214Z,1.25
2019-01-31T11:57:15.240Z,1.11
2019-01-31T11:59:43.591Z,1.20
2019-01-31T12:02:12.124Z,1.22
2019-01-31T12:04:40.568Z,1.09
2019-01-31T12:07:08.979Z,1.19
2019-01-31T12:09:37.254Z,1.20
2019-01-31T12:12:05.625Z,1.49
2019-01-31T12:14:33.968Z,1.61
2019-01-31T12:17:02.335Z,1.73
2019-01-31T12:19:30.624Z,2.03
2019-01-31T12:21:59.025Z,2.12
2019-01-31T12:24:27.493Z,2.12
2019-01-31T12:26:55.821Z,2.15
2019-01-31T12:29:24.144Z,2.16
2019-01-31T12:31:52.487Z,1.95
2019-01-31T12:34:20.927Z,2.12
2019-01-31T12:36:49.292Z,1.98
2019-01-31T12:39:17.675Z,2.18
2019-01-31T12:41:46.092Z,2.84
2019-01-31T12:44:14.435Z,2.82
2019-01-31T12:46:42.707Z,2.82
2019-01-31T12:49:11.115Z,2.62
2019-01-31T12:51:39.391Z,2.67
2019-01-31T12:54:07.713Z,2.63
2019-01-31T12:56:36.085Z,2.69
2019-01-31T12:59:04.615Z,2.93
2019-01-31T13:01:32.963Z,3.14
2019-01-31T13:04:01.333Z,3.18
2019-01-31T13:06:29.744Z,3.09
2019-01-31T13:08:58.090Z,3.10
2019-01-31T13:11:26.487Z,2.90
2019-01-31T13:13:54.796Z,2.69
2019-01-31T13:16:23.179Z,2.81
2019-01-31T13:18:51.590Z,2.68
2019-01-31T13:21:20.880Z,2.96
2019-01-31T13:23:49.921Z,2.97
2019-01-31T13:26:18.355Z,2.97
2019-01-31T13:28:46.753Z,2.72
2019-01-31T13:31:15.116Z,2.72
2019-01-31T13:33:46.565Z,2.76
2019-01-31T13:36:14.244Z,2.51
2019-01-31T13:38:42.622Z,2.48
2019-01-31T13:41:11.123Z,2.46
2019-01-31T13:43:39.472Z,2.53
2019-01-31T13:46:09.212Z,2.42
2019-01-31T13:48:37.530Z,2.62
2019-01-31T13:51:07.340Z,2.80
2019-01-31T13:53:35.726Z,2.45
2019-01-31T13:56:06.139Z,2.68
2019-01-31T13:58:34.713Z,2.55
2019-01-31T14:01:03.132Z,2.42
2019-01-31T14:03:31.451Z,2.60
2019-01-31T14:05:59.791Z,2.78
2019-01-31T14:08:28.233Z,2.79
2019-01-31T14:10:56.494Z,2.55
2019-01-31T14:13:24.799Z,2.74
2019-01-31T14:15:53.946Z,3.26
2019-01-31T14:18:22.584Z,2.93
2019-01-31T14:20:50.866Z,2.85
2019-01-31T14:23:19.207Z,2.72
2019-01-31T14:25:47.623Z,2.63
2019-01-31T14:28:15.996Z,2.30
2019-01-31T14:30:44.356Z,2.59
2019-01-31T14:33:14.328Z,2.78
2019-01-31T14:35:42.687Z,2.80
2019-01-31T14:38:11.077Z,2.57
2019-01-31T14:40:39.393Z,2.53
2019-01-31T14:43:07.662Z,2.17
2019-01-31T14:45:35.932Z,1.88
2019-01-31T14:48:06.212Z,1.91
2019-01-31T14:50:35.955Z,1.90
2019-01-31T14:53:04.927Z,1.91
2019-01-31T14:55:33.287Z,1.80
2019-01-31T14:58:01.643Z,1.69
2019-01-31T15:00:33.988Z,1.83
2019-01-31T15:03:02.388Z,1.73
2019-01-31T15:05:30.737Z,1.85
2019-01-31T15:07:59.097Z,1.78
2019-01-31T15:10:30.113Z,2.01
2019-01-31T15:12:58.547Z,2.07
2019-01-31T15:15:27.002Z,1.89
2019-01-31T15:17:55.436Z,1.91
2019-01-31T15:20:35.804Z,1.82
2019-01-31T15:22:56.084Z,1.64
2019-01-31T15:25:24.579Z,1.41
2019-01-31T15:27:52.942Z,1.37
2019-01-31T15:30:30.200Z,1.33
2019-01-31T15:32:58.558Z,1.24
2019-01-31T15:35:26.926Z,1.37
2019-01-31T15:37:55.311Z,1.39
2019-01-31T15:40:29.904Z,1.54
2019-01-31T15:42:58.261Z,1.47
2019-01-31T15:45:26.598Z,1.46
2019-01-31T15:47:55.128Z,1.38
2019-01-31T15:50:23.456Z,1.36
2019-01-31T15:52:51.789Z,1.42
2019-01-31T15:55:23.127Z,1.29
2019-01-31T15:57:51.535Z,1.35
2019-01-31T16:00:27.416Z,1.38
2019-01-31T16:02:55.855Z,1.40
2019-01-31T16:05:24.214Z,1.35
2019-01-31T16:07:52.595Z,1.33
2019-01-31T16:10:21.011Z,1.13
2019-01-31T16:12:49.343Z,1.15
2019-01-31T16:15:18.914Z,1.22
2019-01-31T16:17:47.268Z,1.15
2019-01-31T16:20:15.709Z,1.11
2019-01-31T16:22:44.095Z,1.09
2019-01-31T16:25:12.475Z,1.13
2019-01-31T16:27:40.749Z,1.06
2019-01-31T16:30:17.358Z,1.02
2019-01-31T16:32:45.665Z,1.03
2019-01-31T16:35:17.254Z,0.91
2019-01-31T16:37:46.664Z,0.92
2019-01-31T16:40:17.390Z,0.97
2019-01-31T16:42:45.831Z,0.95
2019-01-31T16:45:16.269Z,0.94
2019-01-31T16:47:44.602Z,0.99
2019-01-31T16:50:17.111Z,0.82
2019-01-31T16:52:45.587Z,0.95
2019-01-31T16:55:16.586Z,0.84
2019-01-31T16:57:45.695Z,0.92
2019-01-31T17:00:22.862Z,0.98
2019-01-31T17:02:51.152Z,0.89
2019-01-31T17:05:22.603Z,0.91
2019-01-31T17:07:51.099Z,0.90
2019-01-31T17:10:19.451Z,0.92
2019-01-31T17:12:47.737Z,0.94
2019-01-31T17:15:18.815Z,0.80
2019-01-31T17:17:47.232Z,0.72
2019-01-31T17:20:18.780Z,0.80
2019-01-31T17:22:47.109Z,0.80
2019-01-31T17:25:15.536Z,0.82
2019-01-31T17:27:44.088Z,0.77
2019-01-31T17:30:15.670Z,0.83
2019-01-31T17:32:44.111Z,0.83
2019-01-31T17:35:12.658Z,0.79
2019-01-31T17:37:41.061Z,0.84
2019-01-31T17:40:18.235Z,0.80
2019-01-31T17:42:46.626Z,0.79
2019-01-31T17:45:29.634Z,0.75
2019-01-31T17:47:47.762Z,0.81
2019-01-31T17:50:19.170Z,0.83
2019-01-31T17:52:49.156Z,0.87
2019-01-31T17:55:25.216Z,0.90
2019-01-31T17:57:53.602Z,0.88
2019-01-31T18:00:32.361Z,0.87
2019-01-31T18:03:00.772Z,0.85
2019-01-31T18:05:29.135Z,0.80
2019-01-31T18:07:57.976Z,0.84
2019-01-31T18:10:27.244Z,0.88
2019-01-31T18:12:55.523Z,0.86
2019-01-31T18:15:26.066Z,0.78
2019-01-31T18:17:54.907Z,0.82
2019-01-31T18:20:24.037Z,0.75
2019-01-31T18:22:52.322Z,0.70
2019-01-31T18:25:20.696Z,0.69
2019-01-31T18:27:53.075Z,0.58
2019-01-31T18:30:33.384Z,0.37
2019-01-31T18:33:01.656Z,0.35
2019-01-31T18:35:29.975Z,0.30
2019-01-31T18:37:58.766Z,0.20
2019-01-31T18:40:33.885Z,0.19
2019-01-31T18:43:02.831Z,0.15
2019-01-31T18:45:36.401Z,0.09
2019-01-31T18:48:07.060Z,0.02
2019-01-31T18:50:40.758Z,0.05
2019-01-31T18:53:09.112Z,0.08
2019-01-31T18:55:37.635Z,-0.05
2019-01-31T18:58:06.986Z,-0.08
2019-01-31T19:00:38.663Z,-0.16
2019-01-31T19:03:08.177Z,-0.14
2019-01-31T19:05:37.560Z,-0.23
2019-01-31T19:08:08.833Z,-0.26
2019-01-31T19:10:43.303Z,-0.32
2019-01-31T19:13:07.373Z,-0.39
2019-01-31T19:15:35.825Z,-0.31
2019-01-31T19:18:06.334Z,-0.35
2019-01-31T19:20:36.885Z,-0.79
2019-01-31T19:23:07.177Z,-0.15
2019-01-31T19:25:35.482Z,-0.18
2019-01-31T19:28:05.354Z,-0.17
2019-01-31T19:30:36.778Z,-0.17
2019-01-31T19:33:06.305Z,-0.20
2019-01-31T19:35:34.855Z,-0.16
2019-01-31T19:38:03.421Z,-0.14
2019-01-31T19:40:37.308Z,-0.15
2019-01-31T19:43:06.396Z,-0.18
2019-01-31T19:45:43.129Z,-0.12
2019-01-31T19:48:11.627Z,0.10
2019-01-31T19:50:39.951Z,0.10
2019-01-31T19:53:08.448Z,0.08
2019-01-31T19:55:36.929Z,0.12
2019-01-31T19:58:05.505Z,0.09
2019-01-31T20:00:34.832Z,0.11
2019-01-31T20:03:03.602Z,0.08
2019-01-31T20:05:32.138Z,0.17
2019-01-31T20:08:03.423Z,0.16
2019-01-31T20:10:33.028Z,0.15
2019-01-31T20:13:01.996Z,0.19
2019-01-31T20:15:31.343Z,0.21
2019-01-31T20:17:59.969Z,0.24
2019-01-31T20:20:31.459Z,0.23
2019-01-31T20:23:00.687Z,0.23
2019-01-31T20:25:30.778Z,0.31
2019-01-31T20:28:00.986Z,0.26
2019-01-31T20:30:33.303Z,0.30
2019-01-31T20:33:02.379Z,0.32
2019-01-31T20:35:30.874Z,0.31
2019-01-31T20:37:59.910Z,0.42
2019-01-31T20:40:31.396Z,0.48
2019-01-31T20:43:01.521Z,0.40
2019-01-31T20:45:32.491Z,0.38
2019-01-31T20:48:00.883Z,0.31
2019-01-31T20:50:32.799Z,0.33
2019-01-31T20:53:01.408Z,0.36
2019-01-31T20:55:30.162Z,0.41
2019-01-31T20:57:58.440Z,0.44
2019-01-31T21:00:38.006Z,0.45
2019-01-31T21:03:08.626Z,0.44
2019-01-31T21:05:37.119Z,0.45
2019-01-31T21:08:06.918Z,0.43
2019-01-31T21:10:35.250Z,0.51
2019-01-31T21:13:03.938Z,0.52
2019-01-31T21:15:32.391Z,0.54
2019-01-31T21:18:00.684Z,0.67
2019-01-31T21:20:29.117Z,0.54
2019-01-31T21:22:57.389Z,0.56
2019-01-31T21:25:25.730Z,0.53
2019-01-31T21:27:54.060Z,0.64
2019-01-31T21:30:32.403Z,0.62
2019-01-31T21:33:16.765Z,0.60
2019-01-31T21:35:46.087Z,0.68
2019-01-31T21:38:14.605Z,0.72
2019-01-31T21:40:43.193Z,0.70
2019-01-31T21:43:11.564Z,0.72
2019-01-31T21:45:40.926Z,0.75
2019-01-31T21:48:10.407Z,0.71
2019-01-31T21:50:47.443Z,0.81
2019-01-31T21:53:17.705Z,0.77
2019-01-31T21:55:58.368Z,0.76
2019-01-31T21:58:34.965Z,0.77
2019-01-31T22:01:11.500Z,0.80
2019-01-31T22:03:40.762Z,0.80
2019-01-31T22:06:09.226Z,0.86
2019-01-31T22:08:37.549Z,0.81
2019-01-31T22:11:06.081Z,0.84
2019-01-31T22:13:34.509Z,0.77
2019-01-31T22:16:03.004Z,0.81
2019-01-31T22:18:31.412Z,0.80
2019-01-31T22:20:59.771Z,0.73
2019-01-31T22:23:28.445Z,0.72
2019-01-31T22:25:56.763Z,0.67
2019-01-31T22:28:25.145Z,0.65
2019-01-31T22:30:53.488Z,0.70
2019-01-31T22:33:23.493Z,0.69
2019-01-31T22:35:51.768Z,0.68
2019-01-31T22:38:20.200Z,0.71
2019-01-31T22:40:48.462Z,0.73
2019-01-31T22:43:16.817Z,0.75
2019-01-31T22:45:45.228Z,0.66
2019-01-31T22:48:13.579Z,0.74
2019-01-31T22:50:42.007Z,0.76
2019-01-31T22:53:10.476Z,0.72
2019-01-31T22:55:38.957Z,0.71
2019-01-31T22:58:07.226Z,0.67
2019-01-31T23:00:49.443Z,0.71
2019-01-31T23:03:17.755Z,0.72
2019-01-31T23:05:46.098Z,0.70
2019-01-31T23:08:14.447Z,0.75
2019-01-31T23:10:42.779Z,0.78
2019-01-31T23:13:11.233Z,0.79
2019-01-31T23:15:39.646Z,0.75
2019-01-31T23:18:08.025Z,0.72
2019-01-31T23:20:36.435Z,0.75
2019-01-31T23:23:04.702Z,0.73
2019-01-31T23:25:39.741Z,0.63
2019-01-31T23:28:03.124Z,0.66
2019-01-31T23:30:31.515Z,0.63
2019-01-31T23:32:59.911Z,0.54
2019-01-31T23:35:28.302Z,0.63
2019-01-31T23:37:56.693Z,0.48
2019-01-31T23:40:25.051Z,0.45
2019-01-31T23:42:53.435Z,0.32
2019-01-31T23:45:21.762Z,0.29
2019-01-31T23:47:50.138Z,0.18
2019-01-31T23:50:18.477Z,0.30
2019-01-31T23:52:46.992Z,0.21
2019-01-31T23:55:18.610Z,0.21
2019-01-31T23:57:46.942Z,0.12
